Weather reports worldwide

Advertisment
Pantelleria, Italy (16470): temperature & dewpoint: 20.05.2019 00:00:00 - 26.05.2019 00:00:00 (CEST)Pantelleria, Italy (16470): wind speed: 20.05.2019 00:00:00 - 26.05.2019 00:00:00 (CEST)Pantelleria, Italy (16470): wind direction: 20.05.2019 00:00:00 - 26.05.2019 00:00:00 (CEST)Pantelleria, Italy (16470): visibility: 20.05.2019 00:00:00 - 26.05.2019 00:00:00 (CEST)
Date & Time tt [°C] td [°C] ff [km/h] ff [kn] dd vv [km]
26.05.2019 00:00:00 - - - - - -
25.05.2019 23:00:00 - - - - - -
25.05.2019 22:00:00 - - - - - -
25.05.2019 21:00:00 - - - - - -
25.05.2019 20:00:00 22,0 7,0 35 19 E 10
25.05.2019 19:00:00 21,0 9,0 29 16 E 10
25.05.2019 18:00:00 20,0 9,0 39 21 E 10
25.05.2019 17:00:00 20,0 8,0 41 22 NE 10
25.05.2019 16:00:00 18,0 15,0 29 16 ENE 10
25.05.2019 15:00:00 17,0 14,0 26 14 ENE 9
25.05.2019 14:00:00 18,0 11,0 29 16 ENE 9
25.05.2019 13:00:00 20,0 10,0 18 10 E 10
25.05.2019 12:00:00 21,0 13,0 22 12 E 10
25.05.2019 11:00:00 20,0 14,0 16 9 ESE 10
25.05.2019 10:00:00 18,0 16,0 4 2 NNW 10
25.05.2019 09:00:00 17,0 15,0 9 5 S 10
25.05.2019 08:00:00 16,0 14,0 11 6 SSW 10
25.05.2019 07:00:00 16,0 13,0 26 14 SSE 10
25.05.2019 06:00:00 - - - - - -
25.05.2019 05:00:00 - - - - - -
25.05.2019 04:00:00 - - - - - -
25.05.2019 03:00:00 - - - - - -
25.05.2019 02:00:00 - - - - - -
25.05.2019 01:00:00 - - - - - -
25.05.2019 00:00:00 - - - - - -
24.05.2019 23:00:00 - - - - - -
24.05.2019 22:00:00 - - - - - -
24.05.2019 21:00:00 - - - - - -
24.05.2019 20:00:00 21,0 4,0 34 18 SSE 10
24.05.2019 19:00:00 22,0 3,0 37 20 SSE 10
24.05.2019 18:00:00 23,0 3,0 28 15 SSE 10
24.05.2019 17:00:00 24,0 6,0 24 13 SE 10
24.05.2019 16:00:00 23,0 7,0 21 11 SE 10
24.05.2019 15:00:00 22,0 7,0 26 14 SSE 10
24.05.2019 14:00:00 22,0 9,0 26 14 S 10
24.05.2019 13:00:00 23,0 10,0 16 9 S 10
24.05.2019 12:00:00 21,0 11,0 16 9 SSW 10
24.05.2019 11:00:00 21,0 11,0 4 2 - 10
24.05.2019 10:00:00 21,0 11,0 5 3 - 10
24.05.2019 09:00:00 20,0 9,0 8 4 S 10
24.05.2019 08:00:00 18,0 13,0 9 5 S 10
24.05.2019 07:00:00 14,0 13,0 11 6 S 10
24.05.2019 06:00:00 - - - - - -
24.05.2019 05:00:00 - - - - - -
24.05.2019 04:00:00 - - - - - -
24.05.2019 03:00:00 - - - - - -
24.05.2019 02:00:00 - - - - - -
24.05.2019 01:00:00 - - - - - -
24.05.2019 00:00:00 - - - - - -
23.05.2019 23:00:00 - - - - - -
23.05.2019 22:00:00 - - - - - -
23.05.2019 21:00:00 - - - - - -
23.05.2019 20:00:00 18,0 13,0 11 6 W 10
23.05.2019 19:00:00 18,0 14,0 15 8 W 10
23.05.2019 18:00:00 19,0 12,0 13 7 W 10
23.05.2019 17:00:00 19,0 14,0 13 7 WNW 10
23.05.2019 16:00:00 19,0 14,0 18 10 W 10
23.05.2019 15:00:00 20,0 13,0 15 8 W 10
23.05.2019 14:00:00 21,0 14,0 18 10 W 10
23.05.2019 13:00:00 20,0 12,0 18 10 W 10
23.05.2019 12:00:00 20,0 12,0 13 7 W 10
23.05.2019 11:00:00 19,0 15,0 21 11 W 10
23.05.2019 10:00:00 19,0 14,0 16 9 WSW 10
23.05.2019 09:00:00 19,0 8,0 13 7 WSW 10
23.05.2019 08:00:00 17,0 14,0 9 5 WSW 10
23.05.2019 07:00:00 13,0 12,0 11 6 S 10
23.05.2019 06:00:00 - - - - - -
23.05.2019 05:00:00 - - - - - -
23.05.2019 04:00:00 - - - - - -
23.05.2019 03:00:00 - - - - - -
23.05.2019 02:00:00 - - - - - -
23.05.2019 01:00:00 - - - - - -
23.05.2019 00:00:00 - - - - - -
22.05.2019 23:00:00 - - - - - -
22.05.2019 22:00:00 - - - - - -
22.05.2019 21:00:00 - - - - - -
22.05.2019 20:00:00 18,0 14,0 2 1 - 10
22.05.2019 19:00:00 19,0 14,0 9 5 W 10
22.05.2019 18:00:00 20,0 13,0 8 4 W 10
22.05.2019 17:00:00 21,0 14,0 8 4 SW 10
22.05.2019 16:00:00 18,0 14,0 9 5 SW 10
22.05.2019 15:00:00 18,0 14,0 15 8 S 10
22.05.2019 14:00:00 19,0 11,0 16 9 SSW 10
22.05.2019 13:00:00 21,0 10,0 22 12 S 10
22.05.2019 12:00:00 20,0 13,0 24 13 S 10
22.05.2019 11:00:00 20,0 13,0 26 14 S 10
22.05.2019 10:00:00 19,0 14,0 28 15 S 10
22.05.2019 09:00:00 18,0 15,0 26 14 S 10
22.05.2019 08:00:00 18,0 13,0 22 12 S 10
22.05.2019 07:00:00 17,0 13,0 28 15 S 10
22.05.2019 06:00:00 - - - - - -
22.05.2019 05:00:00 - - - - - -
22.05.2019 04:00:00 - - - - - -
22.05.2019 03:00:00 - - - - - -
22.05.2019 02:00:00 - - - - - -
22.05.2019 01:00:00 - - - - - -
22.05.2019 00:00:00 - - - - - -
21.05.2019 23:00:00 - - - - - -
21.05.2019 22:00:00 - - - - - -
21.05.2019 21:00:00 - - - - - -
21.05.2019 20:00:00 18,0 8,0 11 6 S 10
21.05.2019 19:00:00 21,0 8,0 5 3 N 10
21.05.2019 18:00:00 21,0 8,0 4 2 ENE 10
21.05.2019 17:00:00 21,0 10,0 11 6 NNE 10
21.05.2019 16:00:00 22,0 7,0 5 3 SSE 10
21.05.2019 15:00:00 21,0 8,0 24 13 S 10
21.05.2019 14:00:00 21,0 11,0 26 14 S 10
21.05.2019 13:00:00 20,0 12,0 31 17 S 10
21.05.2019 12:00:00 19,0 9,0 31 17 S 10
21.05.2019 11:00:00 19,0 9,0 24 13 S 10
21.05.2019 10:00:00 17,0 11,0 26 14 S 10
21.05.2019 09:00:00 17,0 12,0 21 11 S 10
21.05.2019 08:00:00 15,0 14,0 21 11 S 10
21.05.2019 07:00:00 12,0 11,0 15 8 S 10
21.05.2019 06:00:00 - - - - - -
21.05.2019 05:00:00 - - - - - -
21.05.2019 04:00:00 - - - - - -
21.05.2019 03:00:00 - - - - - -
21.05.2019 02:00:00 - - - - - -
21.05.2019 01:00:00 - - - - - -
21.05.2019 00:00:00 - - - - - -
20.05.2019 23:00:00 - - - - - -
20.05.2019 22:00:00 - - - - - -
20.05.2019 21:00:00 - - - - - -
20.05.2019 20:00:00 16,0 12,0 9 5 WNW 10
20.05.2019 19:00:00 17,0 12,0 13 7 WNW 10
20.05.2019 18:00:00 18,0 12,0 21 11 W 10
20.05.2019 17:00:00 18,0 12,0 18 10 W 10
20.05.2019 16:00:00 19,0 12,0 18 10 W 10
20.05.2019 15:00:00 19,0 13,0 16 9 W 10
20.05.2019 14:00:00 19,0 12,0 18 10 SSW 10
20.05.2019 13:00:00 18,0 15,0 22 12 S 10
20.05.2019 12:00:00 18,0 15,0 21 11 S 10
20.05.2019 11:00:00 18,0 15,0 18 10 S 10
20.05.2019 10:00:00 17,0 14,0 21 11 SSW 10
20.05.2019 09:00:00 16,0 15,0 21 11 S 10
20.05.2019 08:00:00 15,0 14,0 18 10 S 10
20.05.2019 07:00:00 13,0 13,0 15 8 S 10
20.05.2019 06:00:00 - - - - - -
20.05.2019 05:00:00 - - - - - -
20.05.2019 04:00:00 - - - - - -
20.05.2019 03:00:00 - - - - - -
20.05.2019 02:00:00 - - - - - -
20.05.2019 01:00:00 - - - - - -
20.05.2019 00:00:00 - - - - - -

tt = temperature
td = dewpoint
ff = wind speed
dd = wind direction
vv = visibility

Next stations